sensor_id;sensor_type;location;lat;lon;timestamp;temperature;humidity
12761;DHT22;6444;49.742;6.114;2023-04-16T00:00:51;12.50;99.90
12761;DHT22;6444;49.742;6.114;2023-04-16T00:03:19;12.70;99.90
12761;DHT22;6444;49.742;6.114;2023-04-16T00:05:45;12.60;99.90
12761;DHT22;6444;49.742;6.114;2023-04-16T00:08:12;11.90;99.90
12761;DHT22;6444;49.742;6.114;2023-04-16T00:10:39;11.70;99.90
12761;DHT22;6444;49.742;6.114;2023-04-16T00:13:05;11.80;99.90
12761;DHT22;6444;49.742;6.114;2023-04-16T00:15:32;11.70;99.90
12761;DHT22;6444;49.742;6.114;2023-04-16T00:17:59;10.90;99.90
12761;DHT22;6444;49.742;6.114;2023-04-16T00:20:25;11.20;99.90
12761;DHT22;6444;49.742;6.114;2023-04-16T00:22:52;12.00;99.90
12761;DHT22;6444;49.742;6.114;2023-04-16T00:25:18;12.00;99.90
12761;DHT22;6444;49.742;6.114;2023-04-16T00:27:46;12.50;99.90
12761;DHT22;6444;49.742;6.114;2023-04-16T00:30:13;12.50;99.90
12761;DHT22;6444;49.742;6.114;2023-04-16T00:32:39;12.70;99.90
12761;DHT22;6444;49.742;6.114;2023-04-16T00:35:06;11.70;99.90
12761;DHT22;6444;49.742;6.114;2023-04-16T00:37:32;11.60;99.90
12761;DHT22;6444;49.742;6.114;2023-04-16T00:40:00;12.10;99.90
12761;DHT22;6444;49.742;6.114;2023-04-16T00:42:27;12.10;99.90
12761;DHT22;6444;49.742;6.114;2023-04-16T00:44:56;12.20;99.90
12761;DHT22;6444;49.742;6.114;2023-04-16T00:47:23;12.10;99.90
12761;DHT22;6444;49.742;6.114;2023-04-16T00:49:49;11.40;99.90
12761;DHT22;6444;49.742;6.114;2023-04-16T00:52:16;10.80;99.90
12761;DHT22;6444;49.742;6.114;2023-04-16T00:54:43;10.90;99.90
12761;DHT22;6444;49.742;6.114;2023-04-16T00:57:09;11.50;99.90
12761;DHT22;6444;49.742;6.114;2023-04-16T00:59:36;11.80;99.90
12761;DHT22;6444;49.742;6.114;2023-04-16T01:02:03;11.80;99.90
12761;DHT22;6444;49.742;6.114;2023-04-16T01:04:29;11.90;99.90
12761;DHT22;6444;49.742;6.114;2023-04-16T01:06:57;11.90;99.90
12761;DHT22;6444;49.742;6.114;2023-04-16T01:09:23;11.90;99.90
12761;DHT22;6444;49.742;6.114;2023-04-16T01:11:50;11.80;99.90
12761;DHT22;6444;49.742;6.114;2023-04-16T01:14:16;11.30;99.90
12761;DHT22;6444;49.742;6.114;2023-04-16T01:16:44;11.60;99.90
12761;DHT22;6444;49.742;6.114;2023-04-16T01:19:10;11.60;99.90
12761;DHT22;6444;49.742;6.114;2023-04-16T01:21:37;11.30;99.90
12761;DHT22;6444;49.742;6.114;2023-04-16T01:24:04;10.70;99.90
12761;DHT22;6444;49.742;6.114;2023-04-16T01:26:31;11.30;99.90
12761;DHT22;6444;49.742;6.114;2023-04-16T01:28:58;11.30;99.90
12761;DHT22;6444;49.742;6.114;2023-04-16T01:31:24;11.10;99.90
12761;DHT22;6444;49.742;6.114;2023-04-16T01:33:54;11.50;99.90
12761;DHT22;6444;49.742;6.114;2023-04-16T01:36:21;11.50;99.90
12761;DHT22;6444;49.742;6.114;2023-04-16T01:38:47;11.10;99.90
12761;DHT22;6444;49.742;6.114;2023-04-16T01:41:14;11.00;99.90
12761;DHT22;6444;49.742;6.114;2023-04-16T01:43:41;10.70;99.90
12761;DHT22;6444;49.742;6.114;2023-04-16T01:46:16;10.80;99.90
12761;DHT22;6444;49.742;6.114;2023-04-16T01:48:40;11.50;99.90
12761;DHT22;6444;49.742;6.114;2023-04-16T01:51:07;11.70;99.90
12761;DHT22;6444;49.742;6.114;2023-04-16T01:53:34;12.50;99.90
12761;DHT22;6444;49.742;6.114;2023-04-16T01:56:01;12.50;99.90
12761;DHT22;6444;49.742;6.114;2023-04-16T01:58:27;11.90;99.90
12761;DHT22;6444;49.742;6.114;2023-04-16T02:00:54;11.30;99.90
12761;DHT22;6444;49.742;6.114;2023-04-16T02:03:21;11.40;99.90
12761;DHT22;6444;49.742;6.114;2023-04-16T02:05:48;11.40;99.90
12761;DHT22;6444;49.742;6.114;2023-04-16T02:08:14;11.40;99.90
12761;DHT22;6444;49.742;6.114;2023-04-16T02:10:44;12.40;99.90
12761;DHT22;6444;49.742;6.114;2023-04-16T02:13:09;12.40;99.90
12761;DHT22;6444;49.742;6.114;2023-04-16T02:15:35;12.50;99.90
12761;DHT22;6444;49.742;6.114;2023-04-16T02:18:02;12.30;99.90
12761;DHT22;6444;49.742;6.114;2023-04-16T02:20:29;11.80;99.90
12761;DHT22;6444;49.742;6.114;2023-04-16T02:22:55;12.00;99.90
12761;DHT22;6444;49.742;6.114;2023-04-16T02:25:22;11.50;99.90
12761;DHT22;6444;49.742;6.114;2023-04-16T02:27:48;11.40;99.90
12761;DHT22;6444;49.742;6.114;2023-04-16T02:30:16;11.50;99.90
12761;DHT22;6444;49.742;6.114;2023-04-16T02:32:42;11.40;99.90
12761;DHT22;6444;49.742;6.114;2023-04-16T02:35:09;11.60;99.90
12761;DHT22;6444;49.742;6.114;2023-04-16T02:37:36;12.00;99.90
12761;DHT22;6444;49.742;6.114;2023-04-16T02:40:03;11.80;99.90
12761;DHT22;6444;49.742;6.114;2023-04-16T02:42:30;11.80;99.90
12761;DHT22;6444;49.742;6.114;2023-04-16T02:44:56;11.40;99.90
12761;DHT22;6444;49.742;6.114;2023-04-16T02:47:23;11.50;99.90
12761;DHT22;6444;49.742;6.114;2023-04-16T02:49:50;11.70;99.90
12761;DHT22;6444;49.742;6.114;2023-04-16T02:52:16;11.90;99.90
12761;DHT22;6444;49.742;6.114;2023-04-16T02:54:43;11.90;99.90
12761;DHT22;6444;49.742;6.114;2023-04-16T02:57:10;12.10;99.90
12761;DHT22;6444;49.742;6.114;2023-04-16T02:59:36;11.60;99.90
12761;DHT22;6444;49.742;6.114;2023-04-16T03:02:03;11.80;99.90
12761;DHT22;6444;49.742;6.114;2023-04-16T03:04:31;11.20;99.90
12761;DHT22;6444;49.742;6.114;2023-04-16T03:06:56;11.60;99.90
12761;DHT22;6444;49.742;6.114;2023-04-16T03:09:23;12.00;99.90
12761;DHT22;6444;49.742;6.114;2023-04-16T03:11:50;12.00;99.90
12761;DHT22;6444;49.742;6.114;2023-04-16T03:14:16;11.90;99.90
12761;DHT22;6444;49.742;6.114;2023-04-16T03:16:43;11.60;99.90
12761;DHT22;6444;49.742;6.114;2023-04-16T03:19:09;11.90;99.90
12761;DHT22;6444;49.742;6.114;2023-04-16T03:21:36;11.00;99.90
12761;DHT22;6444;49.742;6.114;2023-04-16T03:24:03;11.10;99.90
12761;DHT22;6444;49.742;6.114;2023-04-16T03:26:29;11.50;99.90
12761;DHT22;6444;49.742;6.114;2023-04-16T03:28:56;10.70;99.90
12761;DHT22;6444;49.742;6.114;2023-04-16T03:31:23;10.80;99.90
12761;DHT22;6444;49.742;6.114;2023-04-16T03:33:49;11.00;99.90
12761;DHT22;6444;49.742;6.114;2023-04-16T03:36:16;11.40;99.90
12761;DHT22;6444;49.742;6.114;2023-04-16T03:38:42;11.50;99.90
12761;DHT22;6444;49.742;6.114;2023-04-16T03:41:09;11.80;99.90
12761;DHT22;6444;49.742;6.114;2023-04-16T03:43:36;11.70;99.90
12761;DHT22;6444;49.742;6.114;2023-04-16T03:46:03;11.70;99.90
12761;DHT22;6444;49.742;6.114;2023-04-16T03:48:30;11.40;99.90
12761;DHT22;6444;49.742;6.114;2023-04-16T03:50:56;11.20;99.90
12761;DHT22;6444;49.742;6.114;2023-04-16T03:53:24;11.80;99.90
12761;DHT22;6444;49.742;6.114;2023-04-16T03:55:51;11.80;99.90
12761;DHT22;6444;49.742;6.114;2023-04-16T03:58:17;12.00;99.90
12761;DHT22;6444;49.742;6.114;2023-04-16T04:00:44;12.30;99.90
12761;DHT22;6444;49.742;6.114;2023-04-16T04:03:11;12.70;99.90
12761;DHT22;6444;49.742;6.114;2023-04-16T04:05:41;12.70;99.90
12761;DHT22;6444;49.742;6.114;2023-04-16T04:08:07;12.90;99.90
12761;DHT22;6444;49.742;6.114;2023-04-16T04:10:34;12.70;99.90
12761;DHT22;6444;49.742;6.114;2023-04-16T04:13:03;12.30;99.90
12761;DHT22;6444;49.742;6.114;2023-04-16T04:15:30;12.40;99.90
12761;DHT22;6444;49.742;6.114;2023-04-16T04:17:56;12.50;99.90
12761;DHT22;6444;49.742;6.114;2023-04-16T04:20:23;12.10;99.90
12761;DHT22;6444;49.742;6.114;2023-04-16T04:22:49;12.30;99.90
12761;DHT22;6444;49.742;6.114;2023-04-16T04:25:17;12.60;99.90
12761;DHT22;6444;49.742;6.114;2023-04-16T04:27:43;12.60;99.90
12761;DHT22;6444;49.742;6.114;2023-04-16T04:30:10;12.10;99.90
12761;DHT22;6444;49.742;6.114;2023-04-16T04:32:37;12.20;99.90
12761;DHT22;6444;49.742;6.114;2023-04-16T04:35:03;12.30;99.90
12761;DHT22;6444;49.742;6.114;2023-04-16T04:37:30;12.10;99.90
12761;DHT22;6444;49.742;6.114;2023-04-16T04:39:57;11.60;99.90
12761;DHT22;6444;49.742;6.114;2023-04-16T04:42:23;11.20;99.90
12761;DHT22;6444;49.742;6.114;2023-04-16T04:44:50;10.40;99.90
12761;DHT22;6444;49.742;6.114;2023-04-16T04:47:17;10.70;99.90
12761;DHT22;6444;49.742;6.114;2023-04-16T04:49:43;11.30;99.90
12761;DHT22;6444;49.742;6.114;2023-04-16T04:52:10;11.60;99.90
12761;DHT22;6444;49.742;6.114;2023-04-16T04:54:36;11.40;99.90
12761;DHT22;6444;49.742;6.114;2023-04-16T04:57:03;11.80;99.90
12761;DHT22;6444;49.742;6.114;2023-04-16T04:59:30;12.10;99.90
12761;DHT22;6444;49.742;6.114;2023-04-16T05:01:56;11.90;99.90
12761;DHT22;6444;49.742;6.114;2023-04-16T05:04:23;11.80;99.90
12761;DHT22;6444;49.742;6.114;2023-04-16T05:06:50;10.80;99.90
12761;DHT22;6444;49.742;6.114;2023-04-16T05:09:16;10.90;99.90
12761;DHT22;6444;49.742;6.114;2023-04-16T05:11:43;11.40;99.90
12761;DHT22;6444;49.742;6.114;2023-04-16T05:14:09;11.50;99.90
12761;DHT22;6444;49.742;6.114;2023-04-16T05:16:37;11.50;99.90
12761;DHT22;6444;49.742;6.114;2023-04-16T05:19:03;11.40;99.90
12761;DHT22;6444;49.742;6.114;2023-04-16T05:21:30;10.90;99.90
12761;DHT22;6444;49.742;6.114;2023-04-16T05:23:57;10.50;99.90
12761;DHT22;6444;49.742;6.114;2023-04-16T05:26:24;11.40;99.90
12761;DHT22;6444;49.742;6.114;2023-04-16T05:28:51;11.30;99.90
12761;DHT22;6444;49.742;6.114;2023-04-16T05:31:17;11.40;99.90
12761;DHT22;6444;49.742;6.114;2023-04-16T05:33:44;11.50;99.90
12761;DHT22;6444;49.742;6.114;2023-04-16T05:36:11;11.80;99.90
12761;DHT22;6444;49.742;6.114;2023-04-16T05:38:38;10.30;99.90
12761;DHT22;6444;49.742;6.114;2023-04-16T05:41:05;10.30;99.90
12761;DHT22;6444;49.742;6.114;2023-04-16T05:43:31;10.30;99.90
12761;DHT22;6444;49.742;6.114;2023-04-16T05:45:58;10.70;99.90
12761;DHT22;6444;49.742;6.114;2023-04-16T05:48:24;11.20;99.90
12761;DHT22;6444;49.742;6.114;2023-04-16T05:50:51;11.50;99.90
12761;DHT22;6444;49.742;6.114;2023-04-16T05:53:18;12.00;99.90
12761;DHT22;6444;49.742;6.114;2023-04-16T05:55:44;11.90;99.90
12761;DHT22;6444;49.742;6.114;2023-04-16T05:58:11;11.80;99.90
12761;DHT22;6444;49.742;6.114;2023-04-16T06:00:38;11.10;99.90
12761;DHT22;6444;49.742;6.114;2023-04-16T06:03:04;11.70;99.90
12761;DHT22;6444;49.742;6.114;2023-04-16T06:05:31;12.10;99.90
12761;DHT22;6444;49.742;6.114;2023-04-16T06:07:57;12.20;99.90
12761;DHT22;6444;49.742;6.114;2023-04-16T06:10:24;12.30;99.90
12761;DHT22;6444;49.742;6.114;2023-04-16T06:12:51;12.40;99.90
12761;DHT22;6444;49.742;6.114;2023-04-16T06:15:17;11.90;99.90
12761;DHT22;6444;49.742;6.114;2023-04-16T06:17:44;12.20;99.90
12761;DHT22;6444;49.742;6.114;2023-04-16T06:20:11;12.60;99.90
12761;DHT22;6444;49.742;6.114;2023-04-16T06:22:37;11.90;99.90
12761;DHT22;6444;49.742;6.114;2023-04-16T06:25:04;11.50;99.90
12761;DHT22;6444;49.742;6.114;2023-04-16T06:27:31;12.00;99.90
12761;DHT22;6444;49.742;6.114;2023-04-16T06:29:58;11.70;99.90
12761;DHT22;6444;49.742;6.114;2023-04-16T06:32:24;12.00;99.90
12761;DHT22;6444;49.742;6.114;2023-04-16T06:34:51;12.40;99.90
12761;DHT22;6444;49.742;6.114;2023-04-16T06:37:18;11.80;99.90
12761;DHT22;6444;49.742;6.114;2023-04-16T06:39:45;11.70;99.90
12761;DHT22;6444;49.742;6.114;2023-04-16T06:42:11;10.70;99.90
12761;DHT22;6444;49.742;6.114;2023-04-16T06:44:38;10.60;99.90
12761;DHT22;6444;49.742;6.114;2023-04-16T06:47:05;11.30;99.90
12761;DHT22;6444;49.742;6.114;2023-04-16T06:49:32;11.30;99.90
12761;DHT22;6444;49.742;6.114;2023-04-16T06:51:59;11.30;99.90
12761;DHT22;6444;49.742;6.114;2023-04-16T06:54:25;10.90;99.90
12761;DHT22;6444;49.742;6.114;2023-04-16T06:56:52;11.20;99.90
12761;DHT22;6444;49.742;6.114;2023-04-16T06:59:19;11.70;99.90
12761;DHT22;6444;49.742;6.114;2023-04-16T07:01:45;12.10;99.90
12761;DHT22;6444;49.742;6.114;2023-04-16T07:04:12;11.80;99.90
12761;DHT22;6444;49.742;6.114;2023-04-16T07:06:38;12.20;99.90
12761;DHT22;6444;49.742;6.114;2023-04-16T07:09:05;11.60;99.90
12761;DHT22;6444;49.742;6.114;2023-04-16T07:11:32;12.10;99.90
12761;DHT22;6444;49.742;6.114;2023-04-16T07:13:58;11.10;99.90
12761;DHT22;6444;49.742;6.114;2023-04-16T07:16:25;10.90;99.90
12761;DHT22;6444;49.742;6.114;2023-04-16T07:18:52;11.60;99.90
12761;DHT22;6444;49.742;6.114;2023-04-16T07:21:19;12.80;99.90
12761;DHT22;6444;49.742;6.114;2023-04-16T07:23:46;12.80;99.90
12761;DHT22;6444;49.742;6.114;2023-04-16T07:26:12;12.60;99.90
12761;DHT22;6444;49.742;6.114;2023-04-16T07:28:39;13.20;99.90
12761;DHT22;6444;49.742;6.114;2023-04-16T07:31:05;13.60;99.90
12761;DHT22;6444;49.742;6.114;2023-04-16T07:33:33;12.40;99.90
12761;DHT22;6444;49.742;6.114;2023-04-16T07:35:59;12.30;99.90
12761;DHT22;6444;49.742;6.114;2023-04-16T07:38:26;11.80;99.90
12761;DHT22;6444;49.742;6.114;2023-04-16T07:40:53;12.50;99.90
12761;DHT22;6444;49.742;6.114;2023-04-16T07:43:20;13.10;99.90
12761;DHT22;6444;49.742;6.114;2023-04-16T07:45:47;13.00;99.90
12761;DHT22;6444;49.742;6.114;2023-04-16T07:48:13;12.90;99.90
12761;DHT22;6444;49.742;6.114;2023-04-16T07:50:40;13.60;99.90
12761;DHT22;6444;49.742;6.114;2023-04-16T07:53:12;14.10;99.90
12761;DHT22;6444;49.742;6.114;2023-04-16T07:55:47;14.60;99.90
12761;DHT22;6444;49.742;6.114;2023-04-16T07:58:16;14.80;99.90
12761;DHT22;6444;49.742;6.114;2023-04-16T08:00:34;14.70;99.90
12761;DHT22;6444;49.742;6.114;2023-04-16T08:03:00;15.00;99.90
12761;DHT22;6444;49.742;6.114;2023-04-16T08:05:27;13.60;99.90
12761;DHT22;6444;49.742;6.114;2023-04-16T08:07:53;13.50;99.90
12761;DHT22;6444;49.742;6.114;2023-04-16T08:10:21;14.50;99.90
12761;DHT22;6444;49.742;6.114;2023-04-16T08:12:47;14.50;99.90
12761;DHT22;6444;49.742;6.114;2023-04-16T08:15:18;15.20;99.90
12761;DHT22;6444;49.742;6.114;2023-04-16T08:17:46;15.80;99.90
12761;DHT22;6444;49.742;6.114;2023-04-16T08:20:12;15.50;99.90
12761;DHT22;6444;49.742;6.114;2023-04-16T08:22:39;15.40;99.90
12761;DHT22;6444;49.742;6.114;2023-04-16T08:25:06;16.30;99.90
12761;DHT22;6444;49.742;6.114;2023-04-16T08:27:32;16.40;99.90
12761;DHT22;6444;49.742;6.114;2023-04-16T08:29:59;16.40;99.90
12761;DHT22;6444;49.742;6.114;2023-04-16T08:32:25;16.40;99.90
12761;DHT22;6444;49.742;6.114;2023-04-16T08:34:52;15.50;99.90
12761;DHT22;6444;49.742;6.114;2023-04-16T08:37:19;14.90;99.90
12761;DHT22;6444;49.742;6.114;2023-04-16T08:39:46;14.80;99.90
12761;DHT22;6444;49.742;6.114;2023-04-16T08:42:31;15.50;99.90
12761;DHT22;6444;49.742;6.114;2023-04-16T08:44:59;15.20;99.90
12761;DHT22;6444;49.742;6.114;2023-04-16T08:47:21;15.10;99.90
12761;DHT22;6444;49.742;6.114;2023-04-16T08:49:48;15.70;99.90
12761;DHT22;6444;49.742;6.114;2023-04-16T08:52:17;16.50;99.90
12761;DHT22;6444;49.742;6.114;2023-04-16T08:55:05;17.30;99.90
12761;DHT22;6444;49.742;6.114;2023-04-16T08:57:33;17.30;99.90
12761;DHT22;6444;49.742;6.114;2023-04-16T08:59:57;18.40;99.90
12761;DHT22;6444;49.742;6.114;2023-04-16T09:02:24;18.40;99.90
12761;DHT22;6444;49.742;6.114;2023-04-16T09:04:50;19.40;99.90
12761;DHT22;6444;49.742;6.114;2023-04-16T09:07:17;19.50;99.90
12761;DHT22;6444;49.742;6.114;2023-04-16T09:09:44;16.60;99.90
12761;DHT22;6444;49.742;6.114;2023-04-16T09:12:11;16.50;99.90
12761;DHT22;6444;49.742;6.114;2023-04-16T09:14:38;17.00;99.90
12761;DHT22;6444;49.742;6.114;2023-04-16T09:17:04;16.90;99.90
12761;DHT22;6444;49.742;6.114;2023-04-16T09:19:31;17.20;99.90
12761;DHT22;6444;49.742;6.114;2023-04-16T09:21:58;17.40;99.90
12761;DHT22;6444;49.742;6.114;2023-04-16T09:24:25;17.70;99.90
12761;DHT22;6444;49.742;6.114;2023-04-16T09:26:51;16.80;99.90
12761;DHT22;6444;49.742;6.114;2023-04-16T09:32:03;16.90;99.90
12761;DHT22;6444;49.742;6.114;2023-04-16T09:34:30;16.90;99.90
12761;DHT22;6444;49.742;6.114;2023-04-16T09:37:01;16.60;99.90
12761;DHT22;6444;49.742;6.114;2023-04-16T09:39:23;16.60;99.90
12761;DHT22;6444;49.742;6.114;2023-04-16T09:41:50;16.90;99.90
12761;DHT22;6444;49.742;6.114;2023-04-16T09:44:16;16.70;99.90
12761;DHT22;6444;49.742;6.114;2023-04-16T09:46:43;15.70;99.90
12761;DHT22;6444;49.742;6.114;2023-04-16T09:49:13;15.60;99.90
12761;DHT22;6444;49.742;6.114;2023-04-16T09:51:45;15.80;99.90
12761;DHT22;6444;49.742;6.114;2023-04-16T09:54:12;16.00;99.90
12761;DHT22;6444;49.742;6.114;2023-04-16T09:56:42;15.90;99.90
12761;DHT22;6444;49.742;6.114;2023-04-16T09:59:05;16.40;99.90
12761;DHT22;6444;49.742;6.114;2023-04-16T10:01:31;16.40;99.90
12761;DHT22;6444;49.742;6.114;2023-04-16T10:03:59;17.80;99.90
12761;DHT22;6444;49.742;6.114;2023-04-16T10:06:26;17.80;99.90
12761;DHT22;6444;49.742;6.114;2023-04-16T10:08:52;18.70;99.90
12761;DHT22;6444;49.742;6.114;2023-04-16T10:11:19;19.20;99.90
12761;DHT22;6444;49.742;6.114;2023-04-16T10:13:45;19.00;99.90
12761;DHT22;6444;49.742;6.114;2023-04-16T10:16:13;18.70;99.60
12761;DHT22;6444;49.742;6.114;2023-04-16T10:18:40;18.60;99.60
12761;DHT22;6444;49.742;6.114;2023-04-16T10:21:07;18.10;99.90
12761;DHT22;6444;49.742;6.114;2023-04-16T10:23:33;18.00;99.90
12761;DHT22;6444;49.742;6.114;2023-04-16T10:26:00;18.70;99.90
12761;DHT22;6444;49.742;6.114;2023-04-16T10:28:27;18.30;99.90
12761;DHT22;6444;49.742;6.114;2023-04-16T10:30:53;18.50;99.90
12761;DHT22;6444;49.742;6.114;2023-04-16T10:33:32;19.20;99.90
12761;DHT22;6444;49.742;6.114;2023-04-16T10:38:37;19.10;99.90
12761;DHT22;6444;49.742;6.114;2023-04-16T10:41:02;19.10;99.90
12761;DHT22;6444;49.742;6.114;2023-04-16T10:43:29;19.70;99.30
12761;DHT22;6444;49.742;6.114;2023-04-16T10:45:54;19.40;99.90
12761;DHT22;6444;49.742;6.114;2023-04-16T10:48:24;19.90;98.80
12761;DHT22;6444;49.742;6.114;2023-04-16T10:50:55;18.20;99.90
12761;DHT22;6444;49.742;6.114;2023-04-16T10:53:24;18.20;99.90
12761;DHT22;6444;49.742;6.114;2023-04-16T10:58:29;17.30;99.90
12761;DHT22;6444;49.742;6.114;2023-04-16T11:00:58;17.80;99.90
12761;DHT22;6444;49.742;6.114;2023-04-16T11:03:25;18.80;99.90
12761;DHT22;6444;49.742;6.114;2023-04-16T11:05:51;20.40;99.50
12761;DHT22;6444;49.742;6.114;2023-04-16T11:08:18;21.20;97.70
12761;DHT22;6444;49.742;6.114;2023-04-16T11:10:44;21.30;98.40
12761;DHT22;6444;49.742;6.114;2023-04-16T11:13:11;20.30;98.20
12761;DHT22;6444;49.742;6.114;2023-04-16T11:15:38;19.80;98.10
12761;DHT22;6444;49.742;6.114;2023-04-16T11:18:04;19.50;98.60
12761;DHT22;6444;49.742;6.114;2023-04-16T11:20:31;19.90;98.30
12761;DHT22;6444;49.742;6.114;2023-04-16T11:22:58;19.60;98.70
12761;DHT22;6444;49.742;6.114;2023-04-16T11:25:27;19.30;98.00
12761;DHT22;6444;49.742;6.114;2023-04-16T11:27:54;17.80;99.80
12761;DHT22;6444;49.742;6.114;2023-04-16T11:30:30;19.30;99.20
12761;DHT22;6444;49.742;6.114;2023-04-16T11:32:56;19.20;99.10
12761;DHT22;6444;49.742;6.114;2023-04-16T11:35:23;19.50;99.70
12761;DHT22;6444;49.742;6.114;2023-04-16T11:37:54;20.50;98.40
12761;DHT22;6444;49.742;6.114;2023-04-16T11:40:16;18.90;99.90
12761;DHT22;6444;49.742;6.114;2023-04-16T11:42:46;18.20;99.90
12761;DHT22;6444;49.742;6.114;2023-04-16T11:45:12;18.20;99.90
12761;DHT22;6444;49.742;6.114;2023-04-16T11:47:46;20.10;99.30
12761;DHT22;6444;49.742;6.114;2023-04-16T11:50:22;20.10;99.20
12761;DHT22;6444;49.742;6.114;2023-04-16T11:52:48;19.20;99.90
12761;DHT22;6444;49.742;6.114;2023-04-16T11:55:14;19.60;99.40
12761;DHT22;6444;49.742;6.114;2023-04-16T11:57:41;20.20;98.10
12761;DHT22;6444;49.742;6.114;2023-04-16T12:00:08;19.70;98.90
12761;DHT22;6444;49.742;6.114;2023-04-16T12:02:41;17.80;99.90
12761;DHT22;6444;49.742;6.114;2023-04-16T12:07:53;17.30;99.90
12761;DHT22;6444;49.742;6.114;2023-04-16T12:10:20;17.20;99.90
12761;DHT22;6444;49.742;6.114;2023-04-16T12:12:47;17.90;99.90
12761;DHT22;6444;49.742;6.114;2023-04-16T12:15:14;19.30;99.50
12761;DHT22;6444;49.742;6.114;2023-04-16T12:17:41;19.40;98.70
12761;DHT22;6444;49.742;6.114;2023-04-16T12:20:14;19.30;99.00
12761;DHT22;6444;49.742;6.114;2023-04-16T12:22:46;18.90;99.50
12761;DHT22;6444;49.742;6.114;2023-04-16T12:25:13;17.80;99.90
12761;DHT22;6444;49.742;6.114;2023-04-16T12:27:48;18.40;99.90
12761;DHT22;6444;49.742;6.114;2023-04-16T12:30:14;19.20;98.50
12761;DHT22;6444;49.742;6.114;2023-04-16T12:32:41;17.60;99.90
12761;DHT22;6444;49.742;6.114;2023-04-16T12:35:09;17.70;99.90
12761;DHT22;6444;49.742;6.114;2023-04-16T12:37:34;17.50;99.90
12761;DHT22;6444;49.742;6.114;2023-04-16T12:40:01;18.00;99.90
12761;DHT22;6444;49.742;6.114;2023-04-16T12:42:28;18.20;99.90
12761;DHT22;6444;49.742;6.114;2023-04-16T12:44:55;18.10;99.90
12761;DHT22;6444;49.742;6.114;2023-04-16T12:47:21;18.40;98.60
12761;DHT22;6444;49.742;6.114;2023-04-16T12:49:48;18.40;98.90
12761;DHT22;6444;49.742;6.114;2023-04-16T12:52:15;17.20;99.90
12761;DHT22;6444;49.742;6.114;2023-04-16T12:54:42;17.10;99.90
12761;DHT22;6444;49.742;6.114;2023-04-16T12:57:09;17.80;99.90
12761;DHT22;6444;49.742;6.114;2023-04-16T12:59:35;18.50;99.30
12761;DHT22;6444;49.742;6.114;2023-04-16T13:02:03;18.70;98.00
12761;DHT22;6444;49.742;6.114;2023-04-16T13:04:29;18.60;97.90
12761;DHT22;6444;49.742;6.114;2023-04-16T13:06:56;17.40;99.70
12761;DHT22;6444;49.742;6.114;2023-04-16T13:09:22;17.20;99.90
12761;DHT22;6444;49.742;6.114;2023-04-16T13:11:49;16.20;99.90
12761;DHT22;6444;49.742;6.114;2023-04-16T13:14:16;16.40;99.90
12761;DHT22;6444;49.742;6.114;2023-04-16T13:16:42;16.10;99.90
12761;DHT22;6444;49.742;6.114;2023-04-16T13:19:09;16.90;99.90
12761;DHT22;6444;49.742;6.114;2023-04-16T13:21:36;17.80;99.90
12761;DHT22;6444;49.742;6.114;2023-04-16T13:24:02;18.50;99.90
12761;DHT22;6444;49.742;6.114;2023-04-16T13:26:29;19.30;99.60
12761;DHT22;6444;49.742;6.114;2023-04-16T13:28:55;19.10;99.20
12761;DHT22;6444;49.742;6.114;2023-04-16T13:31:22;18.70;99.90
12761;DHT22;6444;49.742;6.114;2023-04-16T13:33:49;18.90;99.90
12761;DHT22;6444;49.742;6.114;2023-04-16T13:36:15;19.00;99.70
12761;DHT22;6444;49.742;6.114;2023-04-16T13:38:42;19.40;99.10
12761;DHT22;6444;49.742;6.114;2023-04-16T13:41:09;19.10;98.50
12761;DHT22;6444;49.742;6.114;2023-04-16T13:43:35;18.00;99.90
12761;DHT22;6444;49.742;6.114;2023-04-16T13:46:02;18.40;99.20
12761;DHT22;6444;49.742;6.114;2023-04-16T13:48:28;18.00;98.50
12761;DHT22;6444;49.742;6.114;2023-04-16T13:50:56;18.10;99.70
12761;DHT22;6444;49.742;6.114;2023-04-16T13:53:22;18.10;99.70
12761;DHT22;6444;49.742;6.114;2023-04-16T13:55:49;18.50;99.30
12761;DHT22;6444;49.742;6.114;2023-04-16T13:58:16;18.80;99.00
12761;DHT22;6444;49.742;6.114;2023-04-16T14:00:42;18.70;98.10
12761;DHT22;6444;49.742;6.114;2023-04-16T14:03:09;18.40;99.10
12761;DHT22;6444;49.742;6.114;2023-04-16T14:05:36;18.30;98.90
12761;DHT22;6444;49.742;6.114;2023-04-16T14:08:02;17.70;99.40
12761;DHT22;6444;49.742;6.114;2023-04-16T14:10:29;17.40;99.90
12761;DHT22;6444;49.742;6.114;2023-04-16T14:12:56;17.30;99.90
12761;DHT22;6444;49.742;6.114;2023-04-16T14:15:22;17.50;99.90
12761;DHT22;6444;49.742;6.114;2023-04-16T14:17:49;17.70;99.90
12761;DHT22;6444;49.742;6.114;2023-04-16T14:20:15;18.00;99.90
12761;DHT22;6444;49.742;6.114;2023-04-16T14:22:43;17.60;99.90
12761;DHT22;6444;49.742;6.114;2023-04-16T14:25:09;17.60;99.90
12761;DHT22;6444;49.742;6.114;2023-04-16T14:27:36;16.90;99.90
12761;DHT22;6444;49.742;6.114;2023-04-16T14:30:03;16.40;99.90
12761;DHT22;6444;49.742;6.114;2023-04-16T14:32:29;15.70;99.90
12761;DHT22;6444;49.742;6.114;2023-04-16T14:34:56;15.80;99.90
12761;DHT22;6444;49.742;6.114;2023-04-16T14:37:23;16.70;99.90
12761;DHT22;6444;49.742;6.114;2023-04-16T14:39:49;16.80;99.90
12761;DHT22;6444;49.742;6.114;2023-04-16T14:42:16;16.60;99.90
12761;DHT22;6444;49.742;6.114;2023-04-16T14:44:42;17.00;99.90
12761;DHT22;6444;49.742;6.114;2023-04-16T14:47:09;17.30;99.90
12761;DHT22;6444;49.742;6.114;2023-04-16T14:49:36;16.70;99.90
12761;DHT22;6444;49.742;6.114;2023-04-16T14:52:02;15.60;99.90
12761;DHT22;6444;49.742;6.114;2023-04-16T14:54:29;15.70;99.90
12761;DHT22;6444;49.742;6.114;2023-04-16T14:56:56;16.00;99.90
12761;DHT22;6444;49.742;6.114;2023-04-16T14:59:22;16.10;99.90
12761;DHT22;6444;49.742;6.114;2023-04-16T15:01:50;16.10;99.90
12761;DHT22;6444;49.742;6.114;2023-04-16T15:04:16;16.00;99.90
12761;DHT22;6444;49.742;6.114;2023-04-16T15:06:43;15.90;99.90
12761;DHT22;6444;49.742;6.114;2023-04-16T15:09:09;16.20;99.90
12761;DHT22;6444;49.742;6.114;2023-04-16T15:11:36;16.30;99.90
12761;DHT22;6444;49.742;6.114;2023-04-16T15:14:03;17.20;99.90
12761;DHT22;6444;49.742;6.114;2023-04-16T15:16:30;17.20;99.90
12761;DHT22;6444;49.742;6.114;2023-04-16T15:18:57;17.50;99.90
12761;DHT22;6444;49.742;6.114;2023-04-16T15:21:24;17.50;99.90
12761;DHT22;6444;49.742;6.114;2023-04-16T15:23:51;16.40;99.90
12761;DHT22;6444;49.742;6.114;2023-04-16T15:26:17;16.40;99.90
12761;DHT22;6444;49.742;6.114;2023-04-16T15:28:44;17.00;99.90
12761;DHT22;6444;49.742;6.114;2023-04-16T15:31:11;17.50;99.90
12761;DHT22;6444;49.742;6.114;2023-04-16T15:33:38;17.60;99.90
12761;DHT22;6444;49.742;6.114;2023-04-16T15:36:05;17.60;99.90
12761;DHT22;6444;49.742;6.114;2023-04-16T15:38:31;17.80;99.90
12761;DHT22;6444;49.742;6.114;2023-04-16T15:40:58;18.00;99.90
12761;DHT22;6444;49.742;6.114;2023-04-16T15:43:25;16.70;99.90
12761;DHT22;6444;49.742;6.114;2023-04-16T15:45:55;16.60;99.90
12761;DHT22;6444;49.742;6.114;2023-04-16T15:48:19;16.20;99.90
12761;DHT22;6444;49.742;6.114;2023-04-16T15:50:45;16.60;99.90
12761;DHT22;6444;49.742;6.114;2023-04-16T15:53:12;16.30;99.90